createdAt,value
2023-04-11T00:00:41.670Z,18.85
2023-04-11T00:01:45.496Z,19.03
2023-04-11T00:02:49.493Z,18.65
2023-04-11T00:03:53.559Z,18.52
2023-04-11T00:04:57.414Z,19.10
2023-04-11T00:06:01.103Z,18.88
2023-04-11T00:07:04.854Z,19.33
2023-04-11T00:08:08.731Z,18.60
2023-04-11T00:09:13.466Z,18.52
2023-04-11T00:10:17.180Z,18.35
2023-04-11T00:11:20.893Z,18.27
2023-04-11T00:12:24.612Z,18.53
2023-04-11T00:13:30.060Z,18.38
2023-04-11T00:14:33.750Z,17.15
2023-04-11T00:15:37.713Z,18.98
2023-04-11T00:16:41.788Z,18.80
2023-04-11T00:17:45.820Z,18.70
2023-04-11T00:18:49.542Z,19.88
2023-04-11T00:19:53.258Z,19.23
2023-04-11T00:20:56.943Z,17.75
2023-04-11T00:22:00.650Z,19.05
2023-04-11T00:23:04.452Z,17.00
2023-04-11T00:24:08.926Z,19.27
2023-04-11T00:25:12.876Z,17.25
2023-04-11T00:26:16.592Z,19.90
2023-04-11T00:27:21.367Z,18.42
2023-04-11T00:28:25.607Z,18.10
2023-04-11T00:29:30.909Z,18.95
2023-04-11T00:30:34.701Z,17.95
2023-04-11T00:31:38.376Z,19.88
2023-04-11T00:32:42.169Z,18.80
2023-04-11T00:33:45.791Z,19.50
2023-04-11T00:34:49.479Z,19.20
2023-04-11T00:35:53.277Z,16.27
2023-04-11T00:36:57.053Z,19.27
2023-04-11T00:38:01.081Z,19.15
2023-04-11T00:39:04.911Z,18.60
2023-04-11T00:40:09.598Z,19.05
2023-04-11T00:41:13.388Z,18.52
2023-04-11T00:42:17.548Z,18.52
2023-04-11T00:43:21.273Z,19.20
2023-04-11T00:44:24.966Z,19.70
2023-04-11T00:45:30.667Z,18.23
2023-04-11T00:46:35.066Z,20.65
2023-04-11T00:47:39.447Z,19.23
2023-04-11T00:48:43.358Z,18.67
2023-04-11T00:49:47.314Z,18.70
2023-04-11T00:50:50.941Z,19.80
2023-04-11T00:51:54.903Z,19.42
2023-04-11T00:52:58.945Z,18.15
2023-04-11T00:54:02.787Z,18.33
2023-04-11T00:55:08.093Z,18.90
2023-04-11T00:56:12.238Z,18.77
2023-04-11T00:57:16.205Z,18.00
2023-04-11T00:58:20.127Z,18.17
2023-04-11T00:59:23.774Z,18.80
2023-04-11T01:00:31.742Z,18.57
2023-04-11T01:01:35.514Z,19.02
2023-04-11T01:02:39.746Z,19.60
2023-04-11T01:03:43.548Z,19.27
2023-04-11T01:04:47.649Z,18.15
2023-04-11T01:05:52.766Z,19.27
2023-04-11T01:07:00.214Z,19.50
2023-04-11T01:08:04.483Z,19.67
2023-04-11T01:09:08.363Z,19.42
2023-04-11T01:10:13.586Z,19.45
2023-04-11T01:11:18.457Z,18.10
2023-04-11T01:12:22.934Z,18.83
2023-04-11T01:13:26.986Z,19.48
2023-04-11T01:14:30.752Z,20.83
2023-04-11T01:15:36.100Z,20.80
2023-04-11T01:16:40.055Z,20.10
2023-04-11T01:17:45.312Z,19.58
2023-04-11T01:18:50.188Z,19.27
2023-04-11T01:19:54.166Z,20.85
2023-04-11T01:20:58.247Z,20.30
2023-04-11T01:22:03.419Z,20.90
2023-04-11T01:23:08.895Z,22.45
2023-04-11T01:24:14.520Z,20.17
2023-04-11T01:25:21.238Z,19.02
2023-04-11T01:26:25.158Z,21.70
2023-04-11T01:27:28.877Z,21.17
2023-04-11T01:28:32.574Z,20.63
2023-04-11T01:29:36.446Z,21.85
2023-04-11T01:30:40.266Z,20.30
2023-04-11T01:31:44.430Z,22.25
2023-04-11T01:32:48.253Z,21.17
2023-04-11T01:33:52.086Z,21.55
2023-04-11T01:34:59.612Z,21.05
2023-04-11T01:36:03.390Z,20.35
2023-04-11T01:37:07.602Z,19.27
2023-04-11T01:38:11.472Z,21.27
2023-04-11T01:39:17.036Z,20.40
2023-04-11T01:40:21.676Z,21.55
2023-04-11T01:41:27.211Z,23.20
2023-04-11T01:42:33.494Z,21.35
2023-04-11T01:43:37.434Z,22.10
2023-04-11T01:44:41.636Z,23.10
2023-04-11T01:45:45.428Z,21.10
2023-04-11T01:46:49.417Z,20.48
2023-04-11T01:47:53.480Z,21.15
2023-04-11T01:48:58.289Z,20.93
2023-04-11T01:50:02.770Z,21.65
2023-04-11T01:51:07.288Z,21.63
2023-04-11T01:52:11.042Z,22.33
2023-04-11T01:53:14.896Z,21.48
2023-04-11T01:54:20.282Z,22.83
2023-04-11T01:55:23.987Z,22.65
2023-04-11T01:56:27.778Z,22.55
2023-04-11T01:57:31.625Z,22.17
2023-04-11T01:58:35.393Z,21.75
2023-04-11T01:59:39.106Z,22.93
2023-04-11T02:00:42.773Z,22.50
2023-04-11T02:01:46.451Z,23.08
2023-04-11T02:02:50.539Z,21.65
2023-04-11T02:03:54.614Z,22.90
2023-04-11T02:04:58.449Z,21.73
2023-04-11T02:06:03.788Z,22.58
2023-04-11T02:07:07.427Z,23.60
2023-04-11T02:08:11.190Z,21.45
2023-04-11T02:09:14.978Z,23.00
2023-04-11T02:10:20.428Z,25.03
2023-04-11T02:11:24.146Z,24.55
2023-04-11T02:12:27.935Z,24.15
2023-04-11T02:13:31.609Z,22.55
2023-04-11T02:14:42.737Z,23.58
2023-04-11T02:15:46.462Z,23.67
2023-04-11T02:16:54.874Z,23.98
2023-04-11T02:17:58.679Z,23.58
2023-04-11T02:19:02.387Z,23.92
2023-04-11T02:20:07.272Z,26.27
2023-04-11T02:21:11.005Z,25.77
2023-04-11T02:22:15.218Z,24.23
2023-04-11T02:23:18.956Z,25.63
2023-04-11T02:24:22.709Z,25.88
2023-04-11T02:25:28.086Z,25.20
2023-04-11T02:26:31.812Z,24.97
2023-04-11T02:27:35.536Z,23.50
2023-04-11T02:28:39.210Z,25.83
2023-04-11T02:29:42.912Z,24.45
2023-04-11T02:30:46.767Z,24.80
2023-04-11T02:31:50.693Z,26.70
2023-04-11T02:32:54.566Z,25.48
2023-04-11T02:33:58.774Z,24.52
2023-04-11T02:35:02.965Z,25.50
2023-04-11T02:36:07.407Z,25.73
2023-04-11T02:37:11.219Z,26.00
2023-04-11T02:38:15.380Z,25.63
2023-04-11T02:39:19.863Z,25.95
2023-04-11T02:40:23.613Z,25.10
2023-04-11T02:41:28.951Z,25.63
2023-04-11T02:42:32.611Z,25.83
2023-04-11T02:43:36.445Z,25.83
2023-04-11T02:44:40.181Z,25.77
2023-04-11T02:45:43.843Z,25.33
2023-04-11T02:46:47.576Z,24.67
2023-04-11T02:47:51.357Z,23.90
2023-04-11T02:48:55.299Z,23.92
2023-04-11T02:49:59.288Z,25.67
2023-04-11T02:51:03.030Z,25.73
2023-04-11T02:52:06.760Z,25.60
2023-04-11T02:53:10.473Z,24.07
2023-04-11T02:54:14.123Z,24.90
2023-04-11T02:55:17.934Z,26.08
2023-04-11T02:56:24.484Z,23.48
2023-04-11T02:57:30.103Z,24.88
2023-04-11T02:58:33.807Z,24.20
2023-04-11T02:59:37.489Z,26.08
2023-04-11T03:00:41.086Z,24.65
2023-04-11T03:01:46.723Z,26.00
2023-04-11T03:02:50.602Z,26.23
2023-04-11T03:03:54.460Z,26.60
2023-04-11T03:04:58.218Z,26.90
2023-04-11T03:06:02.015Z,26.70
2023-04-11T03:07:05.759Z,27.33
2023-04-11T03:08:09.401Z,28.20
2023-04-11T03:09:13.288Z,27.37
2023-04-11T03:10:17.147Z,26.55
2023-04-11T03:11:20.884Z,25.48
2023-04-11T03:12:24.721Z,26.98
2023-04-11T03:13:30.430Z,27.60
2023-04-11T03:14:34.153Z,27.00
2023-04-11T03:15:37.874Z,26.17
2023-04-11T03:16:41.589Z,27.23
2023-04-11T03:17:45.343Z,25.27
2023-04-11T03:18:49.037Z,25.67
2023-04-11T03:19:52.813Z,27.37
2023-04-11T03:20:56.487Z,27.58
2023-04-11T03:22:01.395Z,27.05
2023-04-11T03:23:05.189Z,27.85
2023-04-11T03:24:09.450Z,25.55
2023-04-11T03:25:13.215Z,25.13
2023-04-11T03:26:16.877Z,26.73
2023-04-11T03:27:20.570Z,27.38
2023-04-11T03:28:24.267Z,25.50
2023-04-11T03:29:29.582Z,26.85
2023-04-11T03:30:33.560Z,26.03
2023-04-11T03:31:37.351Z,27.02
2023-04-11T03:32:41.258Z,26.35
2023-04-11T03:33:44.940Z,25.55
2023-04-11T03:34:48.611Z,28.23
2023-04-11T03:35:52.376Z,24.80
2023-04-11T03:36:56.099Z,27.92
2023-04-11T03:37:59.891Z,25.20
2023-04-11T03:39:03.559Z,26.95
2023-04-11T03:40:08.558Z,27.00
2023-04-11T03:41:12.325Z,26.43
2023-04-11T03:42:16.072Z,26.13
2023-04-11T03:43:20.796Z,27.38
2023-04-11T03:44:24.544Z,26.85
2023-04-11T03:45:29.892Z,24.92
2023-04-11T03:46:33.765Z,27.53
2023-04-11T03:47:37.570Z,26.65
2023-04-11T03:48:41.368Z,28.52
2023-04-11T03:49:45.024Z,26.10
2023-04-11T03:50:48.780Z,25.27
2023-04-11T03:51:52.653Z,26.70
2023-04-11T03:52:56.333Z,25.80
2023-04-11T03:54:00.047Z,25.52
2023-04-11T03:55:04.091Z,27.95
2023-04-11T03:56:08.870Z,28.20
2023-04-11T03:57:12.518Z,26.30
2023-04-11T03:58:16.142Z,25.83
2023-04-11T03:59:19.821Z,26.92
2023-04-11T04:00:23.560Z,25.70
2023-04-11T04:01:28.866Z,27.52
2023-04-11T04:02:33.229Z,28.57
2023-04-11T04:03:37.305Z,25.33
2023-04-11T04:04:41.399Z,26.00
2023-04-11T04:05:45.080Z,27.13
2023-04-11T04:06:48.701Z,25.83
2023-04-11T04:07:53.530Z,26.10
2023-04-11T04:08:58.911Z,26.80
2023-04-11T04:10:02.650Z,25.20
2023-04-11T04:11:06.747Z,24.27
2023-04-11T04:12:10.454Z,24.67
2023-04-11T04:13:14.088Z,25.07
2023-04-11T04:14:17.908Z,24.33
2023-04-11T04:15:21.596Z,24.92
2023-04-11T04:16:25.465Z,25.60
2023-04-11T04:17:30.768Z,26.17
2023-04-11T04:18:34.452Z,26.47
2023-04-11T04:19:38.087Z,26.60
2023-04-11T04:20:42.957Z,26.92
2023-04-11T04:21:46.630Z,27.17
2023-04-11T04:22:50.219Z,26.73
2023-04-11T04:23:54.248Z,25.70
2023-04-11T04:24:58.744Z,25.40
2023-04-11T04:26:02.515Z,25.88
2023-04-11T04:27:06.478Z,25.02
2023-04-11T04:28:10.168Z,25.25
2023-04-11T04:29:13.829Z,26.27
2023-04-11T04:30:18.118Z,26.55
2023-04-11T04:31:21.823Z,27.27
2023-04-11T04:32:25.869Z,24.92
2023-04-11T04:33:31.320Z,26.20
2023-04-11T04:34:34.944Z,24.47
2023-04-11T04:35:38.596Z,25.85
2023-04-11T04:36:42.328Z,24.95
2023-04-11T04:37:46.251Z,27.55
2023-04-11T04:38:50.028Z,25.45
2023-04-11T04:39:54.255Z,24.27
2023-04-11T04:40:58.045Z,25.05
2023-04-11T04:42:01.805Z,24.90
2023-04-11T04:43:05.488Z,23.65
2023-04-11T04:44:09.224Z,24.23
2023-04-11T04:45:12.948Z,25.80
2023-04-11T04:46:16.807Z,27.85
2023-04-11T04:47:20.992Z,27.17
2023-04-11T04:48:24.709Z,24.80
2023-04-11T04:49:29.923Z,24.52
2023-04-11T04:50:33.517Z,25.53
2023-04-11T04:51:37.412Z,25.30
2023-04-11T04:52:41.350Z,25.08
2023-04-11T04:53:44.973Z,24.50
2023-04-11T04:54:48.620Z,24.52
2023-04-11T04:55:52.213Z,25.67
2023-04-11T04:56:55.791Z,26.60
2023-04-11T04:57:59.566Z,26.10
2023-04-11T04:59:03.336Z,24.27
2023-04-11T05:00:08.277Z,25.10
2023-04-11T05:01:12.003Z,26.20
2023-04-11T05:02:15.838Z,25.58
2023-04-11T05:03:19.746Z,26.38
2023-04-11T05:04:23.630Z,24.23
2023-04-11T05:05:28.947Z,27.08
2023-04-11T05:06:33.203Z,25.63
2023-04-11T05:07:36.903Z,25.02
2023-04-11T05:08:40.584Z,24.20
2023-04-11T05:09:44.539Z,26.33
2023-04-11T05:10:48.220Z,26.60
2023-04-11T05:11:51.927Z,26.90
2023-04-11T05:12:56.888Z,25.83
2023-04-11T05:14:00.628Z,26.20
2023-04-11T05:15:04.458Z,26.08
2023-04-11T05:16:09.294Z,25.52
2023-04-11T05:17:13.033Z,25.10
2023-04-11T05:18:16.807Z,27.00
2023-04-11T05:19:20.532Z,26.35
2023-04-11T05:20:24.203Z,25.55
2023-04-11T05:21:29.554Z,26.83
2023-04-11T05:22:33.268Z,25.40
2023-04-11T05:23:37.002Z,26.63
2023-04-11T05:24:40.742Z,26.95
2023-04-11T05:25:44.353Z,25.70
2023-04-11T05:26:48.069Z,27.50
2023-04-11T05:27:51.818Z,25.70
2023-04-11T05:28:55.532Z,26.00
2023-04-11T05:29:59.335Z,25.52
2023-04-11T05:31:03.127Z,26.20
2023-04-11T05:32:07.012Z,25.10
2023-04-11T05:33:10.936Z,25.63
2023-04-11T05:34:14.621Z,26.08
2023-04-11T05:35:18.388Z,27.17
2023-04-11T05:36:22.089Z,25.40
2023-04-11T05:37:27.520Z,25.85
2023-04-11T05:38:31.312Z,25.97
2023-04-11T05:39:35.008Z,24.85
2023-04-11T05:40:38.731Z,27.20
2023-04-11T05:41:42.933Z,27.17
2023-04-11T05:42:47.057Z,27.25
2023-04-11T05:43:50.846Z,27.63
2023-04-11T05:44:54.546Z,27.60
2023-04-11T05:45:58.406Z,26.85
2023-04-11T05:47:02.141Z,26.15
2023-04-11T05:48:06.650Z,25.63
2023-04-11T05:49:10.346Z,27.10
2023-04-11T05:50:15.091Z,26.20
2023-04-11T05:51:18.802Z,26.33
2023-04-11T05:52:22.627Z,25.60
2023-04-11T05:53:27.977Z,27.45
2023-04-11T05:54:36.435Z,26.40
2023-04-11T05:55:40.066Z,25.70
2023-04-11T05:56:43.778Z,28.45
2023-04-11T05:57:47.572Z,27.90
2023-04-11T05:58:51.223Z,25.85
2023-04-11T05:59:54.950Z,26.97
2023-04-11T06:00:58.862Z,26.52
2023-04-11T06:02:02.781Z,27.23
2023-04-11T06:03:07.262Z,26.60
2023-04-11T06:04:11.075Z,28.02
2023-04-11T06:05:14.950Z,27.13
2023-04-11T06:06:18.692Z,27.27
2023-04-11T06:07:22.666Z,26.13
2023-04-11T06:08:28.035Z,25.02
2023-04-11T06:09:33.450Z,28.08
2023-04-11T06:10:37.803Z,27.20
2023-04-11T06:11:41.487Z,26.00
2023-04-11T06:12:45.076Z,26.88
2023-04-11T06:13:48.813Z,25.08
2023-04-11T06:14:52.504Z,27.02
2023-04-11T06:15:56.394Z,27.40
2023-04-11T06:17:00.239Z,26.25
2023-04-11T06:18:04.051Z,26.70
2023-04-11T06:19:07.845Z,27.23
2023-04-11T06:20:12.059Z,28.15
2023-04-11T06:21:15.809Z,25.50
2023-04-11T06:22:19.482Z,26.15
2023-04-11T06:23:23.128Z,25.23
2023-04-11T06:24:39.144Z,25.13
2023-04-11T06:25:42.985Z,25.75
2023-04-11T06:26:46.690Z,26.77
2023-04-11T06:27:50.784Z,27.20
2023-04-11T06:28:54.427Z,26.95
2023-04-11T06:29:58.118Z,25.30
2023-04-11T06:31:01.815Z,25.77
2023-04-11T06:32:05.879Z,25.73
2023-04-11T06:33:12.712Z,25.92
2023-04-11T06:34:16.594Z,24.20
2023-04-11T06:35:20.258Z,27.83
2023-04-11T06:36:23.925Z,27.63
2023-04-11T06:37:27.566Z,26.03
2023-04-11T06:38:31.287Z,24.95
2023-04-11T06:39:36.754Z,25.75
2023-04-11T06:40:40.461Z,26.55
2023-04-11T06:41:44.189Z,27.52
2023-04-11T06:42:47.930Z,27.43
2023-04-11T06:43:51.636Z,27.13
2023-04-11T06:44:55.214Z,26.27
2023-04-11T06:45:58.983Z,26.98
2023-04-11T06:47:02.869Z,27.42
2023-04-11T06:48:07.441Z,26.20
2023-04-11T06:49:11.346Z,26.33
2023-04-11T06:50:15.218Z,26.70
2023-04-11T06:51:18.927Z,25.85
2023-04-11T06:52:22.605Z,26.92
2023-04-11T06:53:26.301Z,26.43
2023-04-11T06:54:30.400Z,25.05
2023-04-11T06:55:35.776Z,24.90
2023-04-11T06:56:39.588Z,27.00
2023-04-11T06:57:44.490Z,25.58
2023-04-11T06:58:48.252Z,26.87
2023-04-11T06:59:51.959Z,27.17
2023-04-11T07:00:55.602Z,26.30
2023-04-11T07:01:59.511Z,27.05
2023-04-11T07:03:03.635Z,26.08
2023-04-11T07:04:07.819Z,27.97
2023-04-11T07:05:11.707Z,26.30
2023-04-11T07:06:15.361Z,27.48
2023-04-11T07:07:19.325Z,25.23
2023-04-11T07:08:23.106Z,26.27
2023-04-11T07:09:26.814Z,26.60
2023-04-11T07:10:30.690Z,24.95
2023-04-11T07:11:36.031Z,26.25
2023-04-11T07:12:39.771Z,27.13
2023-04-11T07:13:43.369Z,26.65
2023-04-11T07:14:49.957Z,25.40
2023-04-11T07:15:53.600Z,25.30
2023-04-11T07:16:57.303Z,26.30
2023-04-11T07:18:01.025Z,26.20
2023-04-11T07:19:04.770Z,26.67
2023-04-11T07:20:09.237Z,26.70
2023-04-11T07:21:13.603Z,26.48
2023-04-11T07:22:17.284Z,26.88
2023-04-11T07:23:22.420Z,26.73
2023-04-11T07:24:27.436Z,26.17
2023-04-11T07:25:31.445Z,25.33
2023-04-11T07:26:36.782Z,26.95
2023-04-11T07:27:40.622Z,24.85
2023-04-11T07:28:44.390Z,25.45
2023-04-11T07:29:48.090Z,25.85
2023-04-11T07:30:51.734Z,26.73
2023-04-11T07:31:55.470Z,25.25
2023-04-11T07:32:59.325Z,25.02
2023-04-11T07:34:02.994Z,26.08
2023-04-11T07:35:07.502Z,27.15
2023-04-11T07:36:11.973Z,25.97
2023-04-11T07:37:15.743Z,26.23
2023-04-11T07:38:19.442Z,26.25
2023-04-11T07:39:23.086Z,26.08
2023-04-11T07:40:26.761Z,27.80
2023-04-11T07:41:30.366Z,26.53
2023-04-11T07:42:35.636Z,26.30
2023-04-11T07:43:39.408Z,26.55
2023-04-11T07:44:43.063Z,25.65
2023-04-11T07:45:46.812Z,26.02
2023-04-11T07:46:50.553Z,27.00
2023-04-11T07:47:54.253Z,25.65
2023-04-11T07:48:58.047Z,26.83
2023-04-11T07:50:01.913Z,25.65
2023-04-11T07:51:05.790Z,26.95
2023-04-11T07:52:10.432Z,26.73
2023-04-11T07:53:15.009Z,24.75
2023-04-11T07:54:18.888Z,25.60
2023-04-11T07:55:22.569Z,25.75
2023-04-11T07:56:26.271Z,25.40
2023-04-11T07:57:30.702Z,26.97
2023-04-11T07:58:36.072Z,25.60
2023-04-11T07:59:40.840Z,24.23
2023-04-11T08:00:44.537Z,24.17
2023-04-11T08:01:48.319Z,24.55
2023-04-11T08:02:52.415Z,26.43
2023-04-11T08:03:57.153Z,25.88
2023-04-11T08:05:01.410Z,26.10
2023-04-11T08:06:05.507Z,25.88
2023-04-11T08:07:09.217Z,26.25
2023-04-11T08:08:12.945Z,26.53
2023-04-11T08:09:16.694Z,25.45
2023-04-11T08:10:20.397Z,26.40
2023-04-11T08:11:24.180Z,25.80
2023-04-11T08:12:27.895Z,25.92
2023-04-11T08:13:31.539Z,26.20
2023-04-11T08:14:37.385Z,26.38
2023-04-11T08:15:41.044Z,25.55
2023-04-11T08:16:44.817Z,27.10
2023-04-11T08:17:48.650Z,27.13
2023-04-11T08:18:53.076Z,26.03
2023-04-11T08:19:56.809Z,25.67
2023-04-11T08:21:00.502Z,25.33
2023-04-11T08:22:04.198Z,25.85
2023-04-11T08:23:08.029Z,26.42
2023-04-11T08:24:11.883Z,25.00
2023-04-11T08:25:16.386Z,25.95
2023-04-11T08:26:20.687Z,26.00
2023-04-11T08:27:24.402Z,24.50
2023-04-11T08:28:28.185Z,24.08
2023-04-11T08:29:31.898Z,26.27
2023-04-11T08:30:37.470Z,24.88
2023-04-11T08:31:43.797Z,25.25
2023-04-11T08:32:47.684Z,24.95
2023-04-11T08:33:52.026Z,25.65
2023-04-11T08:34:55.637Z,24.17
2023-04-11T08:35:59.397Z,25.20
2023-04-11T08:37:03.115Z,25.75
2023-04-11T08:38:06.810Z,24.50
2023-04-11T08:39:10.528Z,24.75
2023-04-11T08:40:14.329Z,23.80
2023-04-11T08:41:18.104Z,22.70
2023-04-11T08:42:26.129Z,24.45
2023-04-11T08:43:29.923Z,25.70
2023-04-11T08:44:33.643Z,25.13
2023-04-11T08:45:39.110Z,25.60
2023-04-11T08:46:44.316Z,26.27
2023-04-11T08:47:48.151Z,23.73
2023-04-11T08:48:51.799Z,25.35
2023-04-11T08:49:55.814Z,25.13
2023-04-11T08:50:59.720Z,25.10
2023-04-11T08:52:04.062Z,25.13
2023-04-11T08:53:09.212Z,24.85
2023-04-11T08:54:13.177Z,25.10
2023-04-11T08:55:16.833Z,25.63
2023-04-11T08:56:20.729Z,25.60
2023-04-11T08:57:25.966Z,26.45
2023-04-11T08:58:30.216Z,24.65
2023-04-11T08:59:34.703Z,24.15
2023-04-11T09:00:40.093Z,25.25
2023-04-11T09:01:43.919Z,23.53
2023-04-11T09:02:58.852Z,25.17
2023-04-11T09:04:04.064Z,25.13
2023-04-11T09:05:08.691Z,25.30
2023-04-11T09:06:13.038Z,23.30
2023-04-11T09:07:17.099Z,24.07
2023-04-11T09:08:20.722Z,23.77
2023-04-11T09:09:30.367Z,24.23
2023-04-11T09:10:34.793Z,25.23
2023-04-11T09:11:54.822Z,25.67
2023-04-11T09:12:58.566Z,26.20
2023-04-11T09:14:09.590Z,24.95
2023-04-11T09:15:20.193Z,25.67
2023-04-11T09:16:25.806Z,24.38
2023-04-11T09:17:42.204Z,23.80
2023-04-11T09:18:47.143Z,23.43
2023-04-11T09:19:50.939Z,24.05
2023-04-11T09:21:00.448Z,24.33
2023-04-11T09:22:05.209Z,24.77
2023-04-11T09:23:23.145Z,24.13
2023-04-11T09:24:28.215Z,23.77
2023-04-11T09:25:44.284Z,25.42
2023-04-11T09:26:47.919Z,22.70
2023-04-11T09:28:07.084Z,24.60
2023-04-11T09:29:10.839Z,23.45
2023-04-11T09:30:24.858Z,22.03
2023-04-11T09:31:42.843Z,24.30
2023-04-11T09:32:46.681Z,23.42
2023-04-11T09:33:57.877Z,24.02
2023-04-11T09:35:15.715Z,23.40
2023-04-11T09:36:21.446Z,23.97
2023-04-11T09:37:25.149Z,22.55
2023-04-11T09:38:33.745Z,22.35
2023-04-11T09:39:37.673Z,23.45
2023-04-11T09:40:43.947Z,23.75
2023-04-11T09:41:47.685Z,21.77
2023-04-11T09:42:57.331Z,21.55
2023-04-11T09:44:01.641Z,22.83
2023-04-11T09:45:05.947Z,23.42
2023-04-11T09:46:10.731Z,22.35
2023-04-11T09:47:16.138Z,24.37
2023-04-11T09:48:19.881Z,24.33
2023-04-11T09:49:24.185Z,23.80
2023-04-11T09:50:29.067Z,23.08
2023-04-11T09:51:37.001Z,22.67
2023-04-11T09:52:42.566Z,22.97
2023-04-11T09:53:46.379Z,20.75
2023-04-11T09:54:51.760Z,22.13
2023-04-11T09:55:56.122Z,22.83
2023-04-11T09:57:00.316Z,22.23
2023-04-11T09:58:06.585Z,22.63
2023-04-11T09:59:10.398Z,23.15
2023-04-11T10:00:15.721Z,21.60
2023-04-11T10:01:20.082Z,21.17
2023-04-11T10:02:26.716Z,22.38
2023-04-11T10:03:32.290Z,22.40
2023-04-11T10:04:36.046Z,22.13
2023-04-11T10:05:40.336Z,21.35
2023-04-11T10:06:50.887Z,21.92
2023-04-11T10:08:00.527Z,22.40
2023-04-11T10:09:12.293Z,23.27
2023-04-11T10:10:20.710Z,22.85
2023-04-11T10:11:24.499Z,23.02
2023-04-11T10:12:34.531Z,20.90
2023-04-11T10:13:43.092Z,21.15
2023-04-11T10:14:46.758Z,21.93
2023-04-11T10:16:08.520Z,22.02
2023-04-11T10:17:13.307Z,23.00
2023-04-11T10:18:18.645Z,21.92
2023-04-11T10:19:25.411Z,22.58
2023-04-11T10:20:46.665Z,21.87
2023-04-11T10:21:50.423Z,21.27
2023-04-11T10:23:00.654Z,20.90
2023-04-11T10:24:11.892Z,21.77
2023-04-11T10:25:17.064Z,21.77
2023-04-11T10:26:20.843Z,23.90
2023-04-11T10:27:48.054Z,24.58
2023-04-11T10:28:51.771Z,22.02
2023-04-11T10:29:55.453Z,22.80
2023-04-11T10:31:03.574Z,23.40
2023-04-11T10:32:11.130Z,24.17
2023-04-11T10:33:16.621Z,24.50
2023-04-11T10:34:22.023Z,22.95
2023-04-11T10:35:25.715Z,23.83
2023-04-11T10:36:49.431Z,22.85
2023-04-11T10:37:53.058Z,22.53
2023-04-11T10:38:56.654Z,24.20
2023-04-11T10:40:07.929Z,23.05
2023-04-11T10:41:28.709Z,22.30
2023-04-11T10:42:33.544Z,22.90
2023-04-11T10:43:39.147Z,23.63
2023-04-11T10:44:43.069Z,22.63
2023-04-11T10:45:46.823Z,24.35
2023-04-11T10:46:52.138Z,23.52
2023-04-11T10:48:03.639Z,23.35
2023-04-11T10:49:07.365Z,22.67
2023-04-11T10:50:37.517Z,22.58
2023-04-11T10:51:41.246Z,23.95
2023-04-11T10:52:45.007Z,23.65
2023-04-11T10:53:48.756Z,24.45
2023-04-11T10:54:53.699Z,24.60
2023-04-11T10:55:57.651Z,23.73
2023-04-11T10:57:01.282Z,21.55
2023-04-11T10:58:05.872Z,21.70
2023-04-11T10:59:29.634Z,21.52
2023-04-11T11:01:21.438Z,20.63
2023-04-11T11:02:40.020Z,20.48
2023-04-11T11:03:54.052Z,21.52
2023-04-11T11:04:58.285Z,23.20
2023-04-11T11:06:05.645Z,22.85
2023-04-11T11:07:15.031Z,20.67
2023-04-11T11:08:28.134Z,21.75
2023-04-11T11:09:32.261Z,21.33
2023-04-11T11:10:40.207Z,22.55
2023-04-11T11:11:43.908Z,23.05
2023-04-11T11:12:54.462Z,22.13
2023-04-11T11:13:58.419Z,21.40
2023-04-11T11:15:14.123Z,20.92
2023-04-11T11:16:19.378Z,21.17
2023-04-11T11:17:23.165Z,22.45
2023-04-11T11:18:26.947Z,21.10
2023-04-11T11:19:30.805Z,23.77
2023-04-11T11:20:34.807Z,23.10
2023-04-11T11:21:40.090Z,23.70
2023-04-11T11:22:43.813Z,22.27
2023-04-11T11:24:01.167Z,20.70
2023-04-11T11:25:09.399Z,20.85
2023-04-11T11:26:13.078Z,21.10
2023-04-11T11:27:23.934Z,23.15
2023-04-11T11:29:35.722Z,22.53
2023-04-11T11:30:50.358Z,23.30
2023-04-11T11:31:54.513Z,21.65
2023-04-11T11:32:58.688Z,21.48
2023-04-11T11:34:18.271Z,21.55
2023-04-11T11:35:26.603Z,22.07
2023-04-11T11:36:31.061Z,22.98
2023-04-11T11:37:36.486Z,22.10
2023-04-11T11:38:40.256Z,23.98
2023-04-11T11:39:44.542Z,22.20
2023-04-11T11:40:48.942Z,22.10
2023-04-11T11:41:53.367Z,21.30
2023-04-11T11:42:57.083Z,22.45
2023-04-11T11:44:00.782Z,21.80
2023-04-11T11:45:16.226Z,23.10
2023-04-11T11:46:19.966Z,21.50
2023-04-11T11:47:23.729Z,21.65
2023-04-11T11:48:27.446Z,22.23
2023-04-11T11:49:45.957Z,21.35
2023-04-11T11:50:56.790Z,21.05
2023-04-11T11:52:00.421Z,21.70
2023-04-11T11:53:15.791Z,24.40
2023-04-11T11:54:19.724Z,20.67
2023-04-11T11:55:33.432Z,23.58
2023-04-11T11:56:37.352Z,23.20
2023-04-11T11:57:45.688Z,23.23
2023-04-11T11:58:49.378Z,19.88
2023-04-11T11:59:56.818Z,23.85
2023-04-11T12:01:00.699Z,23.05
2023-04-11T12:02:05.459Z,22.15
2023-04-11T12:03:10.468Z,22.13
2023-04-11T12:04:14.365Z,21.73
2023-04-11T12:05:18.381Z,21.67
2023-04-11T12:06:22.343Z,23.77
2023-04-11T12:07:26.240Z,23.52
2023-04-11T12:08:34.716Z,22.87
2023-04-11T12:09:38.467Z,22.40
2023-04-11T12:10:43.258Z,22.67
2023-04-11T12:11:46.945Z,23.67
2023-04-11T12:12:53.716Z,22.80
2023-04-11T12:13:58.228Z,22.43
2023-04-11T12:15:02.370Z,24.55
2023-04-11T12:16:06.801Z,24.55
2023-04-11T12:17:10.679Z,24.77
2023-04-11T12:18:14.489Z,23.60
2023-04-11T12:19:18.197Z,23.73
2023-04-11T12:20:24.248Z,23.08
2023-04-11T12:21:28.570Z,23.08
2023-04-11T12:22:32.210Z,23.60
2023-04-11T12:23:37.503Z,22.10
2023-04-11T12:24:41.276Z,24.40
2023-04-11T12:25:45.070Z,25.17
2023-04-11T12:27:05.673Z,25.60
2023-04-11T12:28:10.796Z,24.25
2023-04-11T12:29:14.468Z,23.60
2023-04-11T12:30:18.313Z,22.53
2023-04-11T12:31:22.463Z,23.13
2023-04-11T12:32:26.825Z,24.15
2023-04-11T12:33:30.751Z,22.77
2023-04-11T12:34:34.441Z,22.48
2023-04-11T12:35:38.089Z,23.73
2023-04-11T12:36:41.963Z,25.10
2023-04-11T12:37:45.792Z,24.60
2023-04-11T12:38:51.709Z,23.48
2023-04-11T12:39:55.656Z,25.52
2023-04-11T12:41:19.844Z,24.83
2023-04-11T12:42:26.629Z,23.65
2023-04-11T12:43:31.113Z,24.25
2023-04-11T12:44:34.800Z,26.85
2023-04-11T12:45:38.435Z,24.88
2023-04-11T12:46:42.330Z,23.90
2023-04-11T12:47:46.240Z,24.17
2023-04-11T12:48:50.072Z,23.63
2023-04-11T12:49:53.762Z,23.95
2023-04-11T12:50:57.450Z,24.75
2023-04-11T12:52:01.034Z,23.50
2023-04-11T12:53:04.720Z,25.85
2023-04-11T12:54:10.062Z,25.48
2023-04-11T12:55:14.752Z,26.23
2023-04-11T12:56:18.356Z,24.88
2023-04-11T12:57:22.290Z,25.77
2023-04-11T12:58:26.000Z,24.33
2023-04-11T12:59:31.320Z,26.02
2023-04-11T13:00:36.235Z,27.05
2023-04-11T13:01:40.119Z,24.65
2023-04-11T13:02:45.211Z,26.03
2023-04-11T13:03:49.648Z,25.75
2023-04-11T13:04:53.844Z,25.30
2023-04-11T13:05:57.652Z,23.85
2023-04-11T13:07:01.464Z,26.58
2023-04-11T13:08:05.247Z,25.93
2023-04-11T13:09:12.276Z,25.13
2023-04-11T13:10:16.460Z,25.98
2023-04-11T13:11:20.242Z,25.88
2023-04-11T13:12:23.965Z,26.95
2023-04-11T13:13:27.578Z,25.40
2023-04-11T13:14:31.501Z,23.65
2023-04-11T13:15:35.187Z,25.60
2023-04-11T13:16:38.859Z,24.33
2023-04-11T13:17:42.760Z,26.08
2023-04-11T13:18:46.540Z,26.33
2023-04-11T13:19:50.307Z,24.42
2023-04-11T13:20:54.124Z,24.65
2023-04-11T13:21:57.815Z,24.17
2023-04-11T13:23:01.474Z,23.77
2023-04-11T13:24:05.244Z,23.80
2023-04-11T13:25:11.659Z,25.00
2023-04-11T13:26:15.611Z,25.23
2023-04-11T13:27:19.299Z,25.30
2023-04-11T13:28:23.000Z,25.05
2023-04-11T13:29:27.061Z,24.93
2023-04-11T13:30:30.819Z,23.80
2023-04-11T13:31:34.675Z,24.42
2023-04-11T13:32:38.695Z,23.92
2023-04-11T13:33:43.064Z,24.88
2023-04-11T13:34:49.575Z,23.80
2023-04-11T13:35:53.304Z,23.75
2023-04-11T13:36:56.975Z,26.13
2023-04-11T13:38:01.010Z,25.23
2023-04-11T13:39:04.755Z,25.17
2023-04-11T13:40:10.887Z,24.87
2023-04-11T13:41:15.042Z,23.98
2023-04-11T13:42:18.755Z,25.90
2023-04-11T13:43:22.559Z,24.02
2023-04-11T13:44:26.224Z,24.23
2023-04-11T13:45:29.861Z,24.50
2023-04-11T13:46:33.952Z,25.98
2023-04-11T13:47:38.967Z,26.05
2023-04-11T13:48:42.978Z,25.13
2023-04-11T13:49:46.638Z,25.02
2023-04-11T13:50:50.300Z,25.33
2023-04-11T13:51:53.882Z,25.13
2023-04-11T13:52:57.567Z,24.25
2023-04-11T13:54:01.614Z,26.60
2023-04-11T13:55:05.759Z,25.00
2023-04-11T13:56:11.592Z,23.60
2023-04-11T13:57:15.238Z,26.48
2023-04-11T13:58:19.245Z,24.80